Time;durP1;ratioP1;P1;durP2;ratioP2;P2;SDS_P1;SDS_P2;PMS_P1;PMS_P2;Temp;Humidity;BMP_temperature;BMP_pressure;BME280_temperature;BME280_humidity;BME280_pressure;Samples;Min_cycle;Max_cycle;Signal;HPM_P1;HPM_P2
2022/01/08 00:00:38;;;;;;;22.25;12.50;;;;;;;;;;2366965;57;21048;-82
2022/01/08 00:03:05;;;;;;;19.42;11.27;;;;;;;;;;2618753;53;21072;-81
2022/01/08 00:05:32;;;;;;;21.37;10.52;;;;;;;;;;2619081;53;21091;-82
2022/01/08 00:07:59;;;;;;;21.60;11.07;;;;;;;;;;2619005;52;21108;-82
2022/01/08 00:10:26;;;;;;;22.55;10.88;;;;;;;;;;2618835;52;21107;-82
2022/01/08 00:12:53;;;;;;;20.27;10.05;;;;;;;;;;2367870;57;21032;-82
2022/01/08 00:15:21;;;;;;;20.42;10.93;;;;;;;;;;2619068;52;21147;-82
2022/01/08 00:17:49;;;;;;;18.35;9.70;;;;;;;;;;2619207;53;21019;-82
2022/01/08 00:20:17;;;;;;;17.40;9.35;;;;;;;;;;2618802;52;21024;-81
2022/01/08 00:22:44;;;;;;;16.35;9.20;;;;;;;;;;2367771;57;21083;-82
2022/01/08 00:25:12;;;;;;;24.10;10.75;;;;;;;;;;2618997;52;21024;-82
2022/01/08 00:27:39;;;;;;;17.30;9.75;;;;;;;;;;2368040;57;21019;-82
2022/01/08 00:30:07;;;;;;;17.75;9.10;;;;;;;;;;2619216;52;21075;-82
2022/01/08 00:32:35;;;;;;;14.40;8.75;;;;;;;;;;2619213;53;21063;-82
2022/01/08 00:35:02;;;;;;;12.48;7.65;;;;;;;;;;2367679;57;21047;-82
2022/01/08 00:37:29;;;;;;;16.92;8.93;;;;;;;;;;2367900;57;21035;-82
2022/01/08 00:39:56;;;;;;;16.77;9.73;;;;;;;;;;2618680;53;21687;-82
2022/01/08 00:42:23;;;;;;;23.27;9.07;;;;;;;;;;2368069;57;21147;-82
2022/01/08 00:44:50;;;;;;;18.70;9.80;;;;;;;;;;2619132;52;21032;-82
2022/01/08 00:47:17;;;;;;;21.30;9.98;;;;;;;;;;2618940;52;21610;-81
2022/01/08 00:49:44;;;;;;;20.75;10.68;;;;;;;;;;2367368;57;21493;-82
2022/01/08 00:52:11;;;;;;;14.35;9.40;;;;;;;;;;2619310;52;21024;-82
2022/01/08 00:54:38;;;;;;;16.60;9.80;;;;;;;;;;2367670;57;21523;-82
2022/01/08 00:57:05;;;;;;;14.98;9.65;;;;;;;;;;2619079;52;21008;-81
2022/01/08 00:59:33;;;;;;;15.07;8.20;;;;;;;;;;2367240;57;21119;-82
2022/01/08 01:02:00;;;;;;;15.75;9.77;;;;;;;;;;2367188;57;21102;-81
2022/01/08 01:04:26;;;;;;;18.50;10.85;;;;;;;;;;2366836;57;21351;-82
2022/01/08 01:06:53;;;;;;;26.00;11.80;;;;;;;;;;2367579;57;21015;-82
2022/01/08 01:09:20;;;;;;;21.48;11.12;;;;;;;;;;2367486;57;21012;-82
2022/01/08 01:11:47;;;;;;;18.00;9.93;;;;;;;;;;2367721;57;21087;-82
2022/01/08 01:14:14;;;;;;;18.65;10.18;;;;;;;;;;2367864;57;21131;-81
2022/01/08 01:16:41;;;;;;;17.08;11.32;;;;;;;;;;2367728;57;21052;-82
2022/01/08 01:19:09;;;;;;;17.48;11.05;;;;;;;;;;2618569;52;21016;-82
2022/01/08 01:21:36;;;;;;;23.27;10.95;;;;;;;;;;2618998;52;21012;-82
2022/01/08 01:24:09;;;;;;;18.50;9.90;;;;;;;;;;2619082;52;21063;-80
2022/01/08 01:26:41;;;;;;;18.73;10.98;;;;;;;;;;2619373;53;21020;-82
2022/01/08 01:29:26;;;;;;;18.05;10.50;;;;;;;;;;2618722;53;21095;-81
2022/01/08 01:43:22;;;;;;;17.33;10.27;;;;;;;;;;2367241;57;21432;-81
2022/01/08 01:48:34;;;;;;;19.48;11.48;;;;;;;;;;2365697;57;21189;-82
2022/01/08 01:51:01;;;;;;;21.60;11.60;;;;;;;;;;2618655;52;21047;-83
2022/01/08 01:53:28;;;;;;;17.23;10.65;;;;;;;;;;2618895;52;21071;-82
2022/01/08 01:55:55;;;;;;;26.85;12.82;;;;;;;;;;2619152;52;21024;-83
2022/01/08 01:58:22;;;;;;;18.58;11.23;;;;;;;;;;2618663;52;21055;-84
2022/01/08 02:00:50;;;;;;;22.50;12.98;;;;;;;;;;2367222;57;21106;-83
2022/01/08 02:03:17;;;;;;;24.12;13.00;;;;;;;;;;2618462;52;21115;-82
2022/01/08 02:05:46;;;;;;;23.62;13.32;;;;;;;;;;2619047;52;21012;-83
2022/01/08 02:08:14;;;;;;;32.13;15.63;;;;;;;;;;2618802;52;21019;-83
2022/01/08 02:10:41;;;;;;;21.23;12.63;;;;;;;;;;2367564;57;21036;-83
2022/01/08 02:13:08;;;;;;;27.37;16.05;;;;;;;;;;2619177;52;21071;-83
2022/01/08 02:15:36;;;;;;;23.98;14.20;;;;;;;;;;2366495;57;21071;-83
2022/01/08 02:18:04;;;;;;;27.95;14.48;;;;;;;;;;2619084;53;21024;-82
2022/01/08 02:20:31;;;;;;;21.45;12.80;;;;;;;;;;2367099;57;21063;-81
2022/01/08 02:22:58;;;;;;;26.70;15.13;;;;;;;;;;2618930;52;21020;-82
2022/01/08 02:25:25;;;;;;;23.55;12.32;;;;;;;;;;2618820;52;21516;-82
2022/01/08 02:27:52;;;;;;;23.92;12.25;;;;;;;;;;2618568;53;21020;-83
2022/01/08 02:30:19;;;;;;;22.05;13.80;;;;;;;;;;2367289;57;21052;-83
2022/01/08 02:32:46;;;;;;;21.40;12.25;;;;;;;;;;2618965;53;21107;-83
2022/01/08 02:35:13;;;;;;;24.15;13.02;;;;;;;;;;2367841;57;21012;-83
2022/01/08 02:37:40;;;;;;;22.33;12.82;;;;;;;;;;2618848;52;21123;-83
2022/01/08 02:40:08;;;;;;;19.52;10.63;;;;;;;;;;2367283;57;21019;-82
2022/01/08 02:42:48;;;;;;;22.30;13.05;;;;;;;;;;2619014;52;21087;-83
2022/01/08 02:45:17;;;;;;;27.25;14.02;;;;;;;;;;2619080;52;21020;-83
2022/01/08 02:47:44;;;;;;;21.52;11.90;;;;;;;;;;2367623;57;21087;-82
2022/01/08 02:50:11;;;;;;;18.85;11.20;;;;;;;;;;2367267;57;21027;-82
2022/01/08 02:52:41;;;;;;;21.87;11.85;;;;;;;;;;2367448;57;21027;-82
2022/01/08 02:55:09;;;;;;;24.42;12.27;;;;;;;;;;2618886;52;21036;-82
2022/01/08 02:57:36;;;;;;;21.67;12.25;;;;;;;;;;2367422;57;21025;-83
2022/01/08 03:00:05;;;;;;;23.25;11.68;;;;;;;;;;2367382;57;21039;-83
2022/01/08 03:02:32;;;;;;;17.62;10.50;;;;;;;;;;2367535;57;21051;-82
2022/01/08 03:04:59;;;;;;;19.27;10.05;;;;;;;;;;2367630;57;21011;-82
2022/01/08 03:07:26;;;;;;;18.98;10.48;;;;;;;;;;2367917;57;21080;-82
2022/01/08 03:09:57;;;;;;;17.33;10.95;;;;;;;;;;2367122;57;21047;-82
2022/01/08 03:12:24;;;;;;;16.55;10.13;;;;;;;;;;2367548;57;21031;-82
2022/01/08 03:14:51;;;;;;;14.15;10.07;;;;;;;;;;2618772;53;20996;-82
2022/01/08 03:17:18;;;;;;;21.62;10.98;;;;;;;;;;2618333;52;21068;-82
2022/01/08 03:19:45;;;;;;;17.62;10.65;;;;;;;;;;2618789;52;21020;-82
2022/01/08 03:22:12;;;;;;;16.37;10.70;;;;;;;;;;2618909;53;21524;-82
2022/01/08 03:24:40;;;;;;;15.38;10.43;;;;;;;;;;2618616;52;21576;-83
2022/01/08 03:27:07;;;;;;;16.15;10.40;;;;;;;;;;2367554;57;21043;-83
2022/01/08 03:29:34;;;;;;;16.35;10.43;;;;;;;;;;2618803;52;21076;-83
2022/01/08 03:32:01;;;;;;;21.65;10.55;;;;;;;;;;2367645;57;21087;-82
2022/01/08 03:34:28;;;;;;;20.05;10.05;;;;;;;;;;2367468;57;21101;-83
2022/01/08 03:36:55;;;;;;;13.95;8.52;;;;;;;;;;2367576;57;21531;-83
2022/01/08 03:39:22;;;;;;;17.48;9.63;;;;;;;;;;2366950;57;21032;-83
2022/01/08 03:41:49;;;;;;;15.70;10.30;;;;;;;;;;2368059;57;21123;-82
2022/01/08 03:44:16;;;;;;;16.42;10.18;;;;;;;;;;2618976;52;21075;-82
2022/01/08 03:46:43;;;;;;;13.70;8.23;;;;;;;;;;2618376;52;21062;-81
2022/01/08 03:49:22;;;;;;;11.30;8.40;;;;;;;;;;2618480;52;21118;-82
2022/01/08 03:51:49;;;;;;;15.38;9.45;;;;;;;;;;2617749;53;21031;-80
2022/01/08 03:54:16;;;;;;;21.10;11.57;;;;;;;;;;2365654;57;21103;-81
2022/01/08 03:56:43;;;;;;;18.73;10.48;;;;;;;;;;2367831;57;21016;-82
2022/01/08 03:59:10;;;;;;;17.00;11.07;;;;;;;;;;2367578;56;21012;-82
2022/01/08 04:01:37;;;;;;;18.00;10.70;;;;;;;;;;2618419;52;21016;-82
2022/01/08 04:04:04;;;;;;;15.15;9.65;;;;;;;;;;2618655;52;21012;-81
2022/01/08 04:06:31;;;;;;;16.12;10.13;;;;;;;;;;2367652;57;21050;-82
2022/01/08 04:08:58;;;;;;;16.27;10.20;;;;;;;;;;2618774;52;21523;-82
2022/01/08 04:11:26;;;;;;;16.25;9.70;;;;;;;;;;2619474;52;21139;-82
2022/01/08 04:13:54;;;;;;;16.08;9.45;;;;;;;;;;2367235;57;21032;-81
2022/01/08 04:16:27;;;;;;;17.08;11.15;;;;;;;;;;2367581;57;21060;-82
2022/01/08 04:18:54;;;;;;;20.00;12.07;;;;;;;;;;2618947;53;21050;-83
2022/01/08 04:24:08;;;;;;;20.67;11.38;;;;;;;;;;2351708;57;21348;-81
2022/01/08 04:26:35;;;;;;;12.88;8.30;;;;;;;;;;2619003;52;21016;-80
2022/01/08 04:29:04;;;;;;;16.62;10.35;;;;;;;;;;2618293;52;21031;-81
2022/01/08 04:31:31;;;;;;;16.95;9.90;;;;;;;;;;2367691;57;21056;-81
2022/01/08 04:33:58;;;;;;;22.98;10.77;;;;;;;;;;2367401;57;21027;-81
2022/01/08 04:36:25;;;;;;;21.00;11.38;;;;;;;;;;2367485;57;21115;-82
2022/01/08 04:38:52;;;;;;;17.60;10.02;;;;;;;;;;2367007;57;21079;-81
2022/01/08 04:41:19;;;;;;;22.48;11.23;;;;;;;;;;2367532;57;21084;-80
2022/01/08 04:43:46;;;;;;;16.12;10.05;;;;;;;;;;2367500;57;21044;-82
2022/01/08 04:46:14;;;;;;;21.40;10.88;;;;;;;;;;2619071;52;21543;-82
2022/01/08 04:48:41;;;;;;;21.95;11.10;;;;;;;;;;2367563;57;21018;-80
2022/01/08 04:51:08;;;;;;;16.77;10.57;;;;;;;;;;2619199;52;21032;-82
2022/01/08 04:53:35;;;;;;;21.30;11.70;;;;;;;;;;2367284;57;21028;-81
2022/01/08 04:56:02;;;;;;;21.15;10.68;;;;;;;;;;2367697;57;21071;-81
2022/01/08 04:58:29;;;;;;;21.45;11.85;;;;;;;;;;2367719;57;21027;-83
2022/01/08 05:00:56;;;;;;;17.05;10.15;;;;;;;;;;2367539;57;21039;-81
2022/01/08 05:03:24;;;;;;;17.92;9.65;;;;;;;;;;2619306;53;21043;-81
2022/01/08 05:05:51;;;;;;;20.67;11.27;;;;;;;;;;2618707;52;21028;-81
2022/01/08 05:08:18;;;;;;;18.52;11.07;;;;;;;;;;2618419;53;21056;-80
2022/01/08 05:10:45;;;;;;;21.70;10.75;;;;;;;;;;2367100;57;21019;-81
2022/01/08 05:13:12;;;;;;;19.55;10.75;;;;;;;;;;2367761;57;21043;-81
2022/01/08 05:15:39;;;;;;;21.05;10.43;;;;;;;;;;2618876;52;21036;-82
2022/01/08 05:18:09;;;;;;;21.85;11.65;;;;;;;;;;2366943;57;21036;-81
2022/01/08 05:20:38;;;;;;;19.10;11.57;;;;;;;;;;2366927;57;21600;-81
2022/01/08 05:23:05;;;;;;;28.02;13.45;;;;;;;;;;2619294;53;21007;-82
2022/01/08 05:25:32;;;;;;;25.52;11.93;;;;;;;;;;2367622;57;21032;-81
2022/01/08 05:28:00;;;;;;;19.33;11.20;;;;;;;;;;2619073;53;21004;-80
2022/01/08 05:30:27;;;;;;;28.35;14.73;;;;;;;;;;2367310;57;21012;-81
2022/01/08 05:32:55;;;;;;;22.08;12.52;;;;;;;;;;2367484;57;21035;-80
2022/01/08 05:35:23;;;;;;;25.25;14.60;;;;;;;;;;2367386;57;21012;-83
2022/01/08 05:37:49;;;;;;;23.98;13.35;;;;;;;;;;2619051;52;21087;-84
2022/01/08 05:40:17;;;;;;;28.05;14.98;;;;;;;;;;2367100;57;21533;-84
2022/01/08 05:42:44;;;;;;;23.90;13.93;;;;;;;;;;2367635;57;21528;-81
2022/01/08 05:45:11;;;;;;;30.05;13.50;;;;;;;;;;2618811;52;21015;-80
2022/01/08 05:47:38;;;;;;;29.25;15.85;;;;;;;;;;2618962;53;21051;-82
2022/01/08 05:50:06;;;;;;;30.52;16.08;;;;;;;;;;2367139;57;21555;-82
2022/01/08 05:52:33;;;;;;;30.08;14.07;;;;;;;;;;2618731;52;21015;-81
2022/01/08 05:55:00;;;;;;;28.45;15.18;;;;;;;;;;2367375;57;21016;-82
2022/01/08 05:57:27;;;;;;;28.15;15.30;;;;;;;;;;2367364;56;21264;-81
2022/01/08 05:59:54;;;;;;;24.92;13.05;;;;;;;;;;2367239;57;21663;-81
2022/01/08 06:02:21;;;;;;;22.60;13.25;;;;;;;;;;2366045;57;21028;-81
2022/01/08 06:04:48;;;;;;;27.37;14.23;;;;;;;;;;2367142;57;21594;-81
2022/01/08 06:07:15;;;;;;;26.60;14.55;;;;;;;;;;2367190;57;21520;-81
2022/01/08 06:09:42;;;;;;;27.62;14.48;;;;;;;;;;2366164;56;21020;-81
2022/01/08 06:12:10;;;;;;;22.00;13.77;;;;;;;;;;2367509;57;21040;-82
2022/01/08 06:14:37;;;;;;;30.90;15.75;;;;;;;;;;2367344;57;21024;-81
2022/01/08 06:17:04;;;;;;;29.63;15.30;;;;;;;;;;2618611;52;21040;-81
2022/01/08 06:19:32;;;;;;;25.20;14.07;;;;;;;;;;2617745;53;21443;-81
2022/01/08 06:21:59;;;;;;;28.70;15.20;;;;;;;;;;2618865;52;21035;-80
2022/01/08 06:24:26;;;;;;;21.55;12.75;;;;;;;;;;2367527;57;21067;-81
2022/01/08 06:26:53;;;;;;;24.77;12.98;;;;;;;;;;2367739;57;21016;-81
2022/01/08 06:29:20;;;;;;;29.80;13.90;;;;;;;;;;2367335;57;21062;-81
2022/01/08 06:31:47;;;;;;;23.55;14.02;;;;;;;;;;2367462;57;21032;-81
2022/01/08 06:34:14;;;;;;;27.77;14.98;;;;;;;;;;2367616;57;21079;-81
2022/01/08 06:36:41;;;;;;;27.25;14.13;;;;;;;;;;2367471;57;21019;-81
2022/01/08 06:39:08;;;;;;;26.75;14.98;;;;;;;;;;2366692;57;21209;-82
2022/01/08 06:41:36;;;;;;;32.97;16.37;;;;;;;;;;2367229;57;21133;-81
2022/01/08 06:44:03;;;;;;;24.77;13.43;;;;;;;;;;2367544;57;21044;-81
2022/01/08 06:46:30;;;;;;;27.40;14.60;;;;;;;;;;2618560;52;21099;-80
2022/01/08 06:48:57;;;;;;;24.23;13.88;;;;;;;;;;2618347;52;21075;-81
2022/01/08 06:51:24;;;;;;;28.25;15.88;;;;;;;;;;2367622;57;21087;-82
2022/01/08 06:53:51;;;;;;;30.50;14.82;;;;;;;;;;2618382;52;21039;-81
2022/01/08 06:56:18;;;;;;;40.75;18.92;;;;;;;;;;2367121;57;21012;-81
2022/01/08 06:58:46;;;;;;;31.83;14.43;;;;;;;;;;2618668;52;21040;-81
2022/01/08 07:01:13;;;;;;;30.48;16.58;;;;;;;;;;2367291;57;21023;-81
2022/01/08 07:03:40;;;;;;;33.65;14.70;;;;;;;;;;2367349;57;21155;-81
2022/01/08 07:06:07;;;;;;;32.60;17.30;;;;;;;;;;2367554;57;21039;-81
2022/01/08 07:08:33;;;;;;;37.15;17.75;;;;;;;;;;2367410;57;21075;-81
2022/01/08 07:11:00;;;;;;;29.25;15.57;;;;;;;;;;2366962;57;21020;-81
2022/01/08 07:13:27;;;;;;;30.85;16.12;;;;;;;;;;2619028;52;21028;-80
2022/01/08 07:15:54;;;;;;;29.90;15.07;;;;;;;;;;2367766;57;21027;-80
2022/01/08 07:18:21;;;;;;;36.45;17.80;;;;;;;;;;2618219;53;21044;-81
2022/01/08 07:20:48;;;;;;;25.77;14.75;;;;;;;;;;2366730;57;21103;-82
2022/01/08 07:23:15;;;;;;;25.70;14.35;;;;;;;;;;2366880;57;21036;-81
2022/01/08 07:25:42;;;;;;;28.10;13.20;;;;;;;;;;2367099;57;21028;-81
2022/01/08 07:28:09;;;;;;;23.10;12.75;;;;;;;;;;2366835;57;21016;-81
2022/01/08 07:30:36;;;;;;;28.08;14.27;;;;;;;;;;2366199;57;21035;-81
2022/01/08 07:33:03;;;;;;;20.85;11.65;;;;;;;;;;2618574;52;21019;-81
2022/01/08 07:35:30;;;;;;;24.87;12.77;;;;;;;;;;2366856;57;21584;-82
2022/01/08 07:37:57;;;;;;;21.70;12.50;;;;;;;;;;2618028;52;21071;-82
2022/01/08 07:40:24;;;;;;;25.95;14.73;;;;;;;;;;2617620;52;21016;-83
2022/01/08 07:42:52;;;;;;;21.92;12.13;;;;;;;;;;2618140;52;21154;-82
2022/01/08 07:45:19;;;;;;;23.60;12.63;;;;;;;;;;2366621;57;21094;-82
2022/01/08 07:47:46;;;;;;;25.55;14.30;;;;;;;;;;2581957;53;21079;-81
2022/01/08 07:50:14;;;;;;;24.52;13.75;;;;;;;;;;2577004;53;21024;-82
2022/01/08 07:52:42;;;;;;;21.30;11.02;;;;;;;;;;2577587;53;21083;-82
2022/01/08 07:55:10;;;;;;;20.90;11.65;;;;;;;;;;2333650;57;21051;-82
2022/01/08 07:57:37;;;;;;;22.35;12.00;;;;;;;;;;2333265;57;21060;-82
2022/01/08 08:00:05;;;;;;;22.45;12.37;;;;;;;;;;2333567;57;21147;-82
2022/01/08 08:02:32;;;;;;;24.67;13.18;;;;;;;;;;2333629;57;21039;-83
2022/01/08 08:04:59;;;;;;;21.80;11.35;;;;;;;;;;2577836;53;21043;-82
2022/01/08 08:07:27;;;;;;;26.77;14.00;;;;;;;;;;2333925;57;21059;-82
2022/01/08 08:09:54;;;;;;;24.23;13.75;;;;;;;;;;2333602;57;21123;-82
2022/01/08 08:12:22;;;;;;;33.75;16.15;;;;;;;;;;2577700;53;21626;-82
2022/01/08 08:14:49;;;;;;;27.77;15.60;;;;;;;;;;2333851;57;21067;-82
2022/01/08 08:17:16;;;;;;;29.20;15.63;;;;;;;;;;2333341;57;21087;-82
2022/01/08 08:19:43;;;;;;;27.80;14.70;;;;;;;;;;2333362;57;21059;-80
2022/01/08 08:22:10;;;;;;;30.08;17.10;;;;;;;;;;2332518;57;21067;-82
2022/01/08 08:24:37;;;;;;;31.27;16.35;;;;;;;;;;2333720;57;21063;-82
2022/01/08 08:27:04;;;;;;;31.17;15.35;;;;;;;;;;2577536;53;21114;-82
2022/01/08 08:29:31;;;;;;;38.83;18.02;;;;;;;;;;2577442;53;21055;-82
2022/01/08 08:31:58;;;;;;;30.17;16.48;;;;;;;;;;2577431;53;21144;-81
2022/01/08 08:34:25;;;;;;;30.88;17.42;;;;;;;;;;2333205;57;21059;-82
2022/01/08 08:36:52;;;;;;;31.40;16.87;;;;;;;;;;2333377;57;21639;-83
2022/01/08 08:39:19;;;;;;;31.23;16.42;;;;;;;;;;2577236;53;21068;-82
2022/01/08 08:41:46;;;;;;;35.90;17.83;;;;;;;;;;2333716;57;21091;-82
2022/01/08 08:44:13;;;;;;;43.08;19.40;;;;;;;;;;2577373;53;21139;-82
2022/01/08 08:46:40;;;;;;;32.42;17.17;;;;;;;;;;2333580;57;21051;-82
2022/01/08 08:49:07;;;;;;;33.75;19.17;;;;;;;;;;2576560;53;21115;-80
2022/01/08 08:51:34;;;;;;;34.67;17.95;;;;;;;;;;2576992;53;21031;-82
2022/01/08 08:54:01;;;;;;;38.03;17.15;;;;;;;;;;2576696;53;21055;-82
2022/01/08 08:56:29;;;;;;;43.67;22.10;;;;;;;;;;2575671;53;21071;-82
2022/01/08 08:58:56;;;;;;;30.12;15.27;;;;;;;;;;2576634;53;21036;-80
2022/01/08 09:01:26;;;;;;;39.58;20.55;;;;;;;;;;2333463;57;21045;-83
2022/01/08 09:03:53;;;;;;;34.95;18.98;;;;;;;;;;2576587;53;21131;-82
2022/01/08 09:06:20;;;;;;;32.47;17.08;;;;;;;;;;2577082;53;21119;-82
2022/01/08 09:08:47;;;;;;;34.45;17.77;;;;;;;;;;2332964;57;21055;-82
2022/01/08 09:11:14;;;;;;;42.10;19.98;;;;;;;;;;2333060;57;21032;-82
2022/01/08 09:13:42;;;;;;;36.17;17.90;;;;;;;;;;2333176;57;21051;-81
2022/01/08 09:16:09;;;;;;;37.95;18.90;;;;;;;;;;2333275;57;21071;-80
2022/01/08 09:18:36;;;;;;;36.58;19.52;;;;;;;;;;2333013;57;21071;-83
2022/01/08 09:21:03;;;;;;;36.55;16.62;;;;;;;;;;2332764;57;21040;-82
2022/01/08 09:23:31;;;;;;;33.90;17.50;;;;;;;;;;2333409;57;21044;-82
2022/01/08 09:25:58;;;;;;;29.17;16.58;;;;;;;;;;2577017;53;21091;-82
2022/01/08 09:28:27;;;;;;;31.62;17.80;;;;;;;;;;2333036;57;21075;-83
2022/01/08 09:30:55;;;;;;;33.70;16.12;;;;;;;;;;2576902;53;21110;-81
2022/01/08 09:33:22;;;;;;;30.20;15.65;;;;;;;;;;2333311;57;21143;-82
2022/01/08 09:35:49;;;;;;;38.60;19.45;;;;;;;;;;2577375;53;21060;-81
2022/01/08 09:38:16;;;;;;;34.38;16.98;;;;;;;;;;2333005;57;21182;-82
2022/01/08 09:40:43;;;;;;;32.03;16.67;;;;;;;;;;2333200;57;21039;-82
2022/01/08 09:43:10;;;;;;;33.97;15.25;;;;;;;;;;2333043;57;21090;-82
2022/01/08 09:45:37;;;;;;;39.90;19.25;;;;;;;;;;2577615;53;21559;-82
2022/01/08 09:48:05;;;;;;;34.25;16.45;;;;;;;;;;2333318;57;21070;-82
2022/01/08 09:50:32;;;;;;;36.15;18.15;;;;;;;;;;2577339;53;21047;-83
2022/01/08 09:53:00;;;;;;;28.12;15.10;;;;;;;;;;2333421;57;21067;-81
2022/01/08 09:55:27;;;;;;;36.28;16.85;;;;;;;;;;2333571;57;21056;-83
2022/01/08 09:57:54;;;;;;;30.58;15.93;;;;;;;;;;2577267;53;21047;-82
2022/01/08 10:00:22;;;;;;;26.45;14.43;;;;;;;;;;2577266;53;21674;-84
2022/01/08 10:02:51;;;;;;;33.58;16.80;;;;;;;;;;2333537;57;21103;-84
2022/01/08 10:05:18;;;;;;;32.17;17.25;;;;;;;;;;2333809;57;21115;-83
2022/01/08 10:07:58;;;;;;;32.40;16.90;;;;;;;;;;2334163;57;21072;-82
2022/01/08 10:10:27;;;;;;;35.15;16.75;;;;;;;;;;2577652;53;21036;-83
2022/01/08 10:12:57;;;;;;;30.02;15.00;;;;;;;;;;2578215;53;21053;-82
2022/01/08 10:18:11;;;;;;;26.27;14.90;;;;;;;;;;2334201;57;20988;-83
2022/01/08 10:20:40;;;;;;;28.55;14.87;;;;;;;;;;2578095;53;21071;-84
2022/01/08 10:23:10;;;;;;;32.05;15.40;;;;;;;;;;2334325;57;21634;-84
2022/01/08 10:25:37;;;;;;;29.30;14.35;;;;;;;;;;2578276;53;21111;-84
2022/01/08 10:28:05;;;;;;;30.20;13.98;;;;;;;;;;2334231;57;21047;-83
2022/01/08 10:30:32;;;;;;;35.05;14.57;;;;;;;;;;2577849;53;21063;-84
2022/01/08 10:33:00;;;;;;;24.00;12.32;;;;;;;;;;2333726;57;21166;-83
2022/01/08 10:35:45;;;;;;;19.90;11.38;;;;;;;;;;2576975;53;21056;-83
2022/01/08 10:38:12;;;;;;;20.50;11.10;;;;;;;;;;2333921;57;21079;-84
2022/01/08 10:40:39;;;;;;;25.00;12.80;;;;;;;;;;2333621;57;21119;-84
2022/01/08 10:43:19;;;;;;;23.58;12.32;;;;;;;;;;2333907;57;21082;-84
2022/01/08 10:45:46;;;;;;;20.00;11.10;;;;;;;;;;2577383;53;21048;-84
2022/01/08 10:48:13;;;;;;;22.35;12.60;;;;;;;;;;2577498;53;21083;-84
2022/01/08 10:50:40;;;;;;;23.50;11.00;;;;;;;;;;2577862;53;21108;-82
2022/01/08 10:53:07;;;;;;;19.33;11.10;;;;;;;;;;2578191;53;21116;-82
2022/01/08 10:55:34;;;;;;;25.92;12.32;;;;;;;;;;2334300;57;21099;-83
2022/01/08 10:58:01;;;;;;;24.50;10.52;;;;;;;;;;2578230;53;21552;-81
2022/01/08 11:00:32;;;;;;;22.35;11.43;;;;;;;;;;2334060;57;21552;-83
2022/01/08 11:02:59;;;;;;;19.37;10.98;;;;;;;;;;2334222;57;21068;-84
2022/01/08 11:05:27;;;;;;;22.58;11.98;;;;;;;;;;2577511;53;21047;-86
2022/01/08 11:08:12;;;;;;;29.63;10.50;;;;;;;;;;2576551;53;21051;-83
2022/01/08 11:10:41;;;;;;;20.65;11.07;;;;;;;;;;2577179;53;21138;-84
2022/01/08 11:13:09;;;;;;;19.77;10.45;;;;;;;;;;2333408;57;21142;-83
2022/01/08 11:15:49;;;;;;;19.17;10.52;;;;;;;;;;2577106;53;21714;-85
2022/01/08 11:18:17;;;;;;;21.65;11.43;;;;;;;;;;2575635;53;21063;-86
2022/01/08 11:20:45;;;;;;;22.75;11.02;;;;;;;;;;2333114;57;21111;-85
2022/01/08 11:23:13;;;;;;;20.25;10.15;;;;;;;;;;2577108;53;21067;-84
2022/01/08 11:25:40;;;;;;;15.82;9.25;;;;;;;;;;2332605;57;21063;-82
2022/01/08 11:28:10;;;;;;;19.80;10.57;;;;;;;;;;2577220;53;21182;-83
2022/01/08 11:30:38;;;;;;;18.30;10.55;;;;;;;;;;2576562;53;21059;-83
2022/01/08 11:33:09;;;;;;;18.70;9.90;;;;;;;;;;2333129;57;21051;-82
2022/01/08 11:35:37;;;;;;;20.65;11.95;;;;;;;;;;2578006;53;21127;-83
2022/01/08 11:38:07;;;;;;;26.40;12.55;;;;;;;;;;2577705;53;21107;-82
2022/01/08 11:40:34;;;;;;;20.52;10.95;;;;;;;;;;2577430;53;21099;-83
2022/01/08 11:45:50;;;;;;;23.00;10.90;;;;;;;;;;2269420;59;21571;-74
2022/01/08 11:48:18;;;;;;;17.80;9.27;;;;;;;;;;2269315;59;21538;-76
2022/01/08 11:50:51;;;;;;;22.52;10.32;;;;;;;;;;2289352;58;21123;-74
2022/01/08 11:53:19;;;;;;;23.55;10.80;;;;;;;;;;2291827;58;21130;-74
2022/01/08 11:55:47;;;;;;;17.00;8.38;;;;;;;;;;2291346;58;21581;-74
2022/01/08 11:58:15;;;;;;;17.70;10.45;;;;;;;;;;2291008;58;21195;-74
2022/01/08 12:00:49;;;;;;;17.70;8.52;;;;;;;;;;2291244;58;21047;-74
2022/01/08 12:03:24;;;;;;;14.75;9.13;;;;;;;;;;2291691;58;21067;-74
2022/01/08 12:05:51;;;;;;;18.23;9.25;;;;;;;;;;2291014;58;21634;-74
2022/01/08 12:08:19;;;;;;;17.35;8.95;;;;;;;;;;2300733;55;21048;-74
2022/01/08 12:10:57;;;;;;;17.33;9.65;;;;;;;;;;2291319;58;21127;-74
2022/01/08 12:13:43;;;;;;;13.60;8.93;;;;;;;;;;2311787;55;21051;-74
2022/01/08 12:16:29;;;;;;;18.40;9.30;;;;;;;;;;2291622;58;21108;-76
2022/01/08 12:18:56;;;;;;;16.42;9.13;;;;;;;;;;2291125;58;21165;-76
2022/01/08 12:21:37;;;;;;;19.48;9.63;;;;;;;;;;2291600;58;21067;-75
2022/01/08 12:24:38;;;;;;;24.52;11.55;;;;;;;;;;2291764;58;21068;-76
2022/01/08 12:29:54;;;;;;;16.08;9.00;;;;;;;;;;2340001;57;22127;-76
2022/01/08 12:32:28;;;;;;;16.75;9.15;;;;;;;;;;2436293;53;21037;-75
2022/01/08 12:35:02;;;;;;;16.02;8.52;;;;;;;;;;2347936;57;21041;-76
2022/01/08 12:37:36;;;;;;;18.92;8.55;;;;;;;;;;2347874;57;21045;-75
2022/01/08 12:40:04;;;;;;;18.02;8.48;;;;;;;;;;2347310;57;21038;-75
2022/01/08 12:42:38;;;;;;;17.08;8.63;;;;;;;;;;2347685;55;21050;-73
2022/01/08 12:45:07;;;;;;;19.02;9.77;;;;;;;;;;2347726;57;21053;-76
2022/01/08 12:47:45;;;;;;;20.58;10.18;;;;;;;;;;2347938;57;21631;-76
2022/01/08 12:50:31;;;;;;;18.62;10.23;;;;;;;;;;2347153;57;21085;-76
2022/01/08 12:53:11;;;;;;;16.90;10.40;;;;;;;;;;2347838;57;21038;-75
2022/01/08 12:55:39;;;;;;;22.00;10.45;;;;;;;;;;2347803;57;21057;-76
2022/01/08 12:58:13;;;;;;;18.58;10.23;;;;;;;;;;2347603;57;21670;-76
2022/01/08 13:00:53;;;;;;;14.95;9.60;;;;;;;;;;2347205;57;21395;-75
2022/01/08 13:03:21;;;;;;;17.35;9.95;;;;;;;;;;2571818;53;21385;-75
2022/01/08 13:05:48;;;;;;;20.50;9.90;;;;;;;;;;2347692;57;21045;-76
2022/01/08 13:08:23;;;;;;;16.00;9.65;;;;;;;;;;2347499;57;21524;-75
2022/01/08 13:10:56;;;;;;;18.52;9.25;;;;;;;;;;2347274;57;21046;-75
2022/01/08 13:13:24;;;;;;;23.33;10.32;;;;;;;;;;2416162;53;21105;-75
2022/01/08 13:15:52;;;;;;;18.35;9.82;;;;;;;;;;2347793;57;21037;-76
2022/01/08 13:18:20;;;;;;;20.48;9.13;;;;;;;;;;2347706;57;21049;-75
2022/01/08 13:20:50;;;;;;;19.10;9.57;;;;;;;;;;2353799;53;21109;-75
2022/01/08 13:23:17;;;;;;;21.60;10.50;;;;;;;;;;2361373;53;21081;-76
2022/01/08 13:25:52;;;;;;;23.00;11.18;;;;;;;;;;2347257;57;21057;-75
2022/01/08 13:28:21;;;;;;;15.05;9.07;;;;;;;;;;2347284;57;21092;-75
2022/01/08 13:30:48;;;;;;;16.25;8.85;;;;;;;;;;2347130;57;21578;-75
2022/01/08 13:33:22;;;;;;;18.52;9.18;;;;;;;;;;2347906;57;21046;-75
2022/01/08 13:35:57;;;;;;;15.88;9.30;;;;;;;;;;2500484;53;21543;-75
2022/01/08 13:38:29;;;;;;;16.45;8.55;;;;;;;;;;2369695;53;21104;-74
2022/01/08 13:40:56;;;;;;;20.33;10.70;;;;;;;;;;2346366;57;21074;-75
2022/01/08 13:43:24;;;;;;;15.60;7.85;;;;;;;;;;2346899;57;21109;-75
2022/01/08 13:45:54;;;;;;;13.30;6.80;;;;;;;;;;2346850;57;21109;-75
2022/01/08 13:48:21;;;;;;;16.25;7.97;;;;;;;;;;2346555;57;21053;-75
2022/01/08 13:50:56;;;;;;;17.02;7.85;;;;;;;;;;2346534;57;21110;-76
2022/01/08 13:53:24;;;;;;;13.73;7.70;;;;;;;;;;2346843;57;21033;-75
2022/01/08 13:55:51;;;;;;;18.25;8.13;;;;;;;;;;2346840;57;21196;-75
2022/01/08 13:58:19;;;;;;;15.05;8.18;;;;;;;;;;2346372;57;21579;-75
2022/01/08 14:00:47;;;;;;;13.15;7.95;;;;;;;;;;2346387;57;21045;-75
2022/01/08 14:03:18;;;;;;;15.50;7.90;;;;;;;;;;2346636;57;21042;-76
2022/01/08 14:05:45;;;;;;;16.95;8.82;;;;;;;;;;2346614;57;21034;-75
2022/01/08 14:08:12;;;;;;;16.73;9.23;;;;;;;;;;2346915;57;21077;-75
2022/01/08 14:10:40;;;;;;;17.08;8.32;;;;;;;;;;2346193;57;21588;-75
2022/01/08 14:13:08;;;;;;;17.85;9.27;;;;;;;;;;2346757;57;21544;-75
2022/01/08 14:15:35;;;;;;;15.32;8.73;;;;;;;;;;2346376;57;21106;-75
2022/01/08 14:18:09;;;;;;;20.27;8.70;;;;;;;;;;2347048;57;21531;-76
2022/01/08 14:20:36;;;;;;;20.17;9.27;;;;;;;;;;2346239;57;21022;-76
2022/01/08 14:23:10;;;;;;;18.77;9.25;;;;;;;;;;2346635;57;21101;-75
2022/01/08 14:25:37;;;;;;;21.58;10.57;;;;;;;;;;2346340;57;21117;-75
2022/01/08 14:28:14;;;;;;;15.68;8.57;;;;;;;;;;2345826;57;21045;-75
2022/01/08 14:30:41;;;;;;;20.48;9.25;;;;;;;;;;2346156;57;21101;-75
2022/01/08 14:33:08;;;;;;;16.95;9.65;;;;;;;;;;2346312;57;21046;-75
2022/01/08 14:35:35;;;;;;;24.80;11.12;;;;;;;;;;2352145;53;21038;-76
2022/01/08 14:38:03;;;;;;;17.00;9.05;;;;;;;;;;2346522;57;21596;-76
2022/01/08 14:40:31;;;;;;;20.08;10.13;;;;;;;;;;2345977;57;21029;-75
2022/01/08 14:43:00;;;;;;;19.30;9.20;;;;;;;;;;2346281;57;21041;-76
2022/01/08 14:45:27;;;;;;;17.05;9.25;;;;;;;;;;2384466;53;21050;-76
2022/01/08 14:47:56;;;;;;;20.92;10.27;;;;;;;;;;2345958;57;21041;-76
2022/01/08 14:50:28;;;;;;;23.80;11.02;;;;;;;;;;2346621;57;21101;-77
2022/01/08 14:52:56;;;;;;;20.83;10.85;;;;;;;;;;2346751;57;21037;-77